Address 0x904f7c7e11471a2ae059c18f1da6fa2094882f9f 6

Txn Hash Method
Block
From
To
Value [Txn Fee]
0x0195fe5797e1c7b63ec3d2aa5ae5294848468b73ef97d91bce04d6bc20fb3190Swap Exact Token...152332222022-05-27 6:20:407 hrs 15 mins ago0x904f7c7e11471a2ae059c18f1da6fa2094882f9fOUT Trader Joe: Router0 AVAX0.0046587265 26.5
0x476d2c49900abfe33a665400004f396117a34e6ab3ec52872905690bdf1446e3Approve152325652022-05-27 5:58:577 hrs 36 mins ago0x904f7c7e11471a2ae059c18f1da6fa2094882f9fOUT 0x47536f17f4ff30e64a96a7555826b8f9e66ec4680 AVAX0.0012351915 26.5
0x8fabe0032a23e691c33115630b47e9659591e7ec808926542fd70e1df3aae055Swap Exact Token...152325442022-05-27 5:58:157 hrs 37 mins ago0x904f7c7e11471a2ae059c18f1da6fa2094882f9fOUT Trader Joe: Router0 AVAX0.0052444825 26.5
0xaa7ade626548945f8c958b9a0fdb8d2dadbca12f60fe91f4667cce1323f139e8Approve152325222022-05-27 5:57:317 hrs 38 mins ago0x904f7c7e11471a2ae059c18f1da6fa2094882f9fOUT Wonderland: Time Token0 AVAX0.0012316935 26.5
0x57fff8aa85a6a43a9170ec4179e5fb0e6111e38c0360b74360a70fee2c45e165Unstake152325022022-05-27 5:56:467 hrs 38 mins ago0x904f7c7e11471a2ae059c18f1da6fa2094882f9fOUT Wonderland: Time Staking0 AVAX0.00252993 30
0xe7074baef4c3e7b264bd2e6eb0e7752a0ee0bb48e66439ce200736d43448cdbaFlash Loan152318152022-05-27 5:34:458 hrs ago0x904f7c7e11471a2ae059c18f1da6fa2094882f9fOUT Aave: Lending Pool V2 10 AVAX0.0371973875 26.5
0xc6ff8b509036c28045cff0eb40f11a58a0c272af8473afc218f1fb72ca527f4dFlash Loan152317682022-05-27 5:33:098 hrs 2 mins ago0x904f7c7e11471a2ae059c18f1da6fa2094882f9fOUT Aave: Lending Pool V2 10 AVAX0.0389523235 26.5
0xbf1fd2f03f20730577547adf154356600f76634459342a08c105e997c1330e86Flash Loan152317482022-05-27 5:32:298 hrs 3 mins ago0x904f7c7e11471a2ae059c18f1da6fa2094882f9fOUT Aave: Lending Pool V2 10 AVAX0.0409180405 26.5
0x4eb21d5cf2f3d4ae3bbbee18053769366c255f2536f911477610dd57007ceb34Approve152315302022-05-27 5:25:138 hrs 10 mins ago0x904f7c7e11471a2ae059c18f1da6fa2094882f9fOUT 0x53f7c5869a859f0aec3d334ee8b4cf01e3492f210 AVAX0.001368566 26.5
0x3ca281bb384e02bb220a32460ba5b2a21cb4db09cbe0908e8950eaecb07c43c0Approve150593532022-05-23 5:12:194 days 8 hrs ago0x904f7c7e11471a2ae059c18f1da6fa2094882f9fOUT 0x47536f17f4ff30e64a96a7555826b8f9e66ec4680 AVAX0.001165275 25.000000001
0xf19d50377af2d281367f7065108dea732d027fe891fe6072a3b44362a572cd31Swap Exact Token...149005292022-05-19 12:56:348 days 39 mins ago0x904f7c7e11471a2ae059c18f1da6fa2094882f9fOUT Trader Joe: Router0 AVAX0.004273231 26.5
0x7924caeee4054c854e2a4336abde27c15fbb233e1c3592937d649589f3ea5c1eApprove149005122022-05-19 12:56:038 days 39 mins ago0x904f7c7e11471a2ae059c18f1da6fa2094882f9fOUT 0x0802d66f029c46e042b74d543fc43b6705ccb4ba0 AVAX0.0012351915 26.5
0xd9dfbf7726119da1f378395aa00e2af314dee9001eeb617707a8d21d405bb14fSwap Exact Token...148997142022-05-19 12:29:248 days 1 hr ago0x904f7c7e11471a2ae059c18f1da6fa2094882f9fOUT Trader Joe: Router0 AVAX0.005258236 26.5
0x659545763a1d6978856a7eb3c2c8d5768913333f062f11063fb40165671df8dfApprove148996792022-05-19 12:28:148 days 1 hr ago0x904f7c7e11471a2ae059c18f1da6fa2094882f9fOUT USD Coin0 AVAX0.001595035 26.5
0xcdf1c3f3a79de15fd0b4fc759a5a17d47bab76eea53f9e0ca8c37bd0650820c6Exchange148996572022-05-19 12:27:268 days 1 hr ago0x904f7c7e11471a2ae059c18f1da6fa2094882f9fOUT 0xd79138c49c49200a1afc935171d1bdad084fdc950 AVAX0.004667175 25
0x803e4f31808af489d87f6379869151adf486ff566e5fdce143068858498d8379Approve148996152022-05-19 12:26:088 days 1 hr ago0x904f7c7e11471a2ae059c18f1da6fa2094882f9fOUT Wormhole: UST Token0 AVAX0.001546575 25
0x8c9639fc4112619ca7db878040a7cbd43d356423402118dadf603f7e751605e1Repay147170192022-05-15 6:38:5712 days 6 hrs ago0x904f7c7e11471a2ae059c18f1da6fa2094882f9fOUT Aave: Lending Pool V2 10 AVAX0.006520537 26.5
0xba23b24a7cc713d53e4e01b86e349714e2e0d1c9b0b9176e4b5eee9e5dc47276Exchange147170002022-05-15 6:38:1912 days 6 hrs ago0x904f7c7e11471a2ae059c18f1da6fa2094882f9fOUT 0x3a43a5851a3e3e0e25a3c1089670269786be15770 AVAX0.00393445 25
0x3b6be8fc69d8b6f4d3f5161e9d14ec88ff329a1f39c805909ee596461c29e56bApprove147169802022-05-15 6:37:3712 days 6 hrs ago0x904f7c7e11471a2ae059c18f1da6fa2094882f9fOUT USD Coin0 AVAX0.00150475 25
0x43dd0f764a7b5486c9c56bbc1b081c9811f61fd16c9e7f52172ec74cd46beff0Deposit147117122022-05-15 3:41:2912 days 9 hrs ago0x904f7c7e11471a2ae059c18f1da6fa2094882f9fOUT Aave: Lending Pool V2 10 AVAX0.00651264 26.5
0x526fe8f61f462ed6bd3c025e62a8c3e21d2cf5e163db2bd89ca76967ee6fcf03Redeem Stable145790522022-05-12 2:10:3815 days 11 hrs ago0x904f7c7e11471a2ae059c18f1da6fa2094882f9fOUT 0x95ae712c309d33de0250edd0c2d7cb1ceafd45500 AVAX0.021474413174 93.415346092
0x4da228d2afb6d5b6b2724b1b490184c7182d5c97a8ef17d19650397d12a8cbd8Approve145431802022-05-11 6:16:0616 days 7 hrs ago0x904f7c7e11471a2ae059c18f1da6fa2094882f9fOUT 0xab9a04808167c170a9ec4f8a87a0cd781ebcd55e0 AVAX0.004118120332 66.568390354
0x9024c4222913739632f8913503e9de6747bd3e85c70a0c53ae1ef5cb960374a3Deposit Stable139614692022-04-27 9:39:0230 days 3 hrs ago0x904f7c7e11471a2ae059c18f1da6fa2094882f9fOUT 0x95ae712c309d33de0250edd0c2d7cb1ceafd45500 AVAX0.016552559702 72.018376867
0x294fd627dbbbfaf9e24df3f253b3b60b72ee0155a99f563daaa9d1c6f9e673f5Exchange139614452022-04-27 9:38:1430 days 3 hrs ago0x904f7c7e11471a2ae059c18f1da6fa2094882f9fOUT 0xcb11ee4b70d73e38a383b8691cafb221059669cc0 AVAX0.014239188012 75.812948636
0xeb3f2bf66b3a93337e844e87c3f7a665633513a7d0b9d130416ae0412fa3bf20Deposit Stable139135642022-04-26 6:56:3331 days 6 hrs ago0x904f7c7e11471a2ae059c18f1da6fa2094882f9fOUT 0x95ae712c309d33de0250edd0c2d7cb1ceafd45500 AVAX0.013033697547 56.711153428
[ Download CSV Export 
Latest 1 internal transaction
Parent Txn Hash Block From To Value
0x5d06127f9465092f3f4be926349dd100bebd2b2c00f38c52d568a59b7c71881272429932021-11-21 15:48:45186 days 21 hrs ago Wrapped AVAX0x904f7c7e11471a2ae059c18f1da6fa2094882f9f1.597735994811806559 AVAX
[ Download CSV Export 
Loading

Contract Name:
0

Compiler Version
0

Optimization Enabled:
0

Other Settings:
-NA-
Block Transaction Gas Used Reward
Age Block Fee Address BC Fee Address Voting Power Jailed Incoming
Block Uncle Number Difficulty Gas Used Reward
Loading
Make sure to use the "Vote Down" button for any spammy posts, and the "Vote Up" for interesting conversations.